createdAt,value
2023-04-25T00:00:31.197Z,3.03
2023-04-25T00:03:00.823Z,3.60
2023-04-25T00:05:30.668Z,3.67
2023-04-25T00:07:59.429Z,3.37
2023-04-25T00:10:27.336Z,3.23
2023-04-25T00:12:55.279Z,3.63
2023-04-25T00:15:25.454Z,3.40
2023-04-25T00:17:54.175Z,2.87
2023-04-25T00:20:23.046Z,2.93
2023-04-25T00:22:51.001Z,3.60
2023-04-25T00:25:18.882Z,3.77
2023-04-25T00:27:47.013Z,3.00
2023-04-25T00:30:15.520Z,3.07
2023-04-25T00:32:44.842Z,2.93
2023-04-25T00:35:12.849Z,2.90
2023-04-25T00:37:41.016Z,3.33
2023-04-25T00:40:09.647Z,3.00
2023-04-25T00:42:38.043Z,2.83
2023-04-25T00:45:10.093Z,2.83
2023-04-25T00:47:38.812Z,3.30
2023-04-25T00:50:09.713Z,2.87
2023-04-25T00:52:37.968Z,3.87
2023-04-25T00:55:06.232Z,2.60
2023-04-25T00:57:34.213Z,3.00
2023-04-25T01:00:02.252Z,2.70
2023-04-25T01:02:31.184Z,2.87
2023-04-25T01:04:59.176Z,2.97
2023-04-25T01:07:28.685Z,2.70
2023-04-25T01:09:56.555Z,2.50
2023-04-25T01:12:24.648Z,2.47
2023-04-25T01:14:52.631Z,3.00
2023-04-25T01:17:20.914Z,3.07
2023-04-25T01:19:50.074Z,2.87
2023-04-25T01:22:19.439Z,2.47
2023-04-25T01:24:47.964Z,3.27
2023-04-25T01:27:16.360Z,2.57
2023-04-25T01:29:44.278Z,2.40
2023-04-25T01:32:12.285Z,3.20
2023-04-25T01:34:40.308Z,2.67
2023-04-25T01:37:08.262Z,2.57
2023-04-25T01:39:37.648Z,2.53
2023-04-25T01:42:05.764Z,2.27
2023-04-25T01:44:33.688Z,2.77
2023-04-25T01:47:01.611Z,2.80
2023-04-25T01:49:29.661Z,2.27
2023-04-25T01:51:57.573Z,2.70
2023-04-25T01:54:25.474Z,2.70
2023-04-25T01:56:54.824Z,2.43
2023-04-25T01:59:23.006Z,2.40
2023-04-25T02:01:51.154Z,2.67
2023-04-25T02:04:19.481Z,2.47
2023-04-25T02:06:47.551Z,2.10
2023-04-25T02:09:15.520Z,3.57
2023-04-25T02:11:43.476Z,2.33
2023-04-25T02:14:12.768Z,2.53
2023-04-25T02:16:40.958Z,2.40
2023-04-25T02:19:08.972Z,2.03
2023-04-25T02:21:36.953Z,2.50
2023-04-25T02:24:05.054Z,2.67
2023-04-25T02:26:32.992Z,2.33
2023-04-25T02:29:01.019Z,2.37
2023-04-25T02:31:30.495Z,2.20
2023-04-25T02:33:58.444Z,2.50
2023-04-25T02:36:27.472Z,2.10
2023-04-25T02:38:55.478Z,2.37
2023-04-25T02:41:23.413Z,2.43
2023-04-25T02:43:51.612Z,2.27
2023-04-25T02:46:32.231Z,2.13
2023-04-25T02:49:08.290Z,2.77
2023-04-25T02:51:36.184Z,2.00
2023-04-25T02:54:04.293Z,2.30
2023-04-25T02:56:32.211Z,2.30
2023-04-25T02:59:00.135Z,2.10
2023-04-25T03:01:28.096Z,2.23
2023-04-25T03:03:56.230Z,1.93
2023-04-25T03:06:25.656Z,1.90
2023-04-25T03:08:53.611Z,2.30
2023-04-25T03:11:22.143Z,2.37
2023-04-25T03:13:50.317Z,1.97
2023-04-25T03:16:18.538Z,2.13
2023-04-25T03:18:46.414Z,1.90
2023-04-25T03:21:14.359Z,2.53
2023-04-25T03:23:43.734Z,2.50
2023-04-25T03:26:11.648Z,2.70
2023-04-25T03:28:40.906Z,2.43
2023-04-25T03:31:08.816Z,2.57
2023-04-25T03:33:36.743Z,2.27
2023-04-25T03:36:04.846Z,2.57
2023-04-25T03:38:32.744Z,2.83
2023-04-25T03:41:02.052Z,2.80
2023-04-25T03:43:30.022Z,2.67
2023-04-25T03:45:58.019Z,2.20
2023-04-25T03:48:27.272Z,2.17
2023-04-25T03:50:55.288Z,2.50
2023-04-25T03:53:23.237Z,2.53
2023-04-25T03:55:51.281Z,1.80
2023-04-25T03:58:20.685Z,2.40
2023-04-25T04:00:48.582Z,2.20
2023-04-25T04:03:16.807Z,3.17
2023-04-25T04:05:44.896Z,2.37
2023-04-25T04:08:13.027Z,2.80
2023-04-25T04:10:41.381Z,2.57
2023-04-25T04:13:09.335Z,2.47
2023-04-25T04:15:38.689Z,2.53
2023-04-25T04:18:07.474Z,2.03
2023-04-25T04:20:35.502Z,2.60
2023-04-25T04:23:04.286Z,2.20
2023-04-25T04:25:32.260Z,2.40
2023-04-25T04:28:00.230Z,2.50
2023-04-25T04:30:30.608Z,2.40
2023-04-25T04:33:00.102Z,2.70
2023-04-25T04:35:28.050Z,2.60
2023-04-25T04:37:56.526Z,2.77
2023-04-25T04:40:24.419Z,3.00
2023-04-25T04:42:52.318Z,2.80
2023-04-25T04:45:20.262Z,2.80
2023-04-25T04:47:49.790Z,2.87
2023-04-25T04:50:19.618Z,3.07
2023-04-25T04:52:47.610Z,2.80
2023-04-25T04:55:15.496Z,2.73
2023-04-25T04:57:43.453Z,3.00
2023-04-25T05:00:12.532Z,3.50
2023-04-25T05:02:40.825Z,2.70
2023-04-25T05:05:09.390Z,3.73
2023-04-25T05:07:38.743Z,3.17
2023-04-25T05:10:07.287Z,3.20
2023-04-25T05:12:37.194Z,3.87
2023-04-25T05:15:05.562Z,3.20
2023-04-25T05:17:34.193Z,3.77
2023-04-25T05:20:02.263Z,3.03
2023-04-25T05:22:30.198Z,3.00
2023-04-25T05:24:59.593Z,3.30
2023-04-25T05:27:27.581Z,4.17
2023-04-25T05:29:55.915Z,3.23
2023-04-25T05:32:23.947Z,3.43
2023-04-25T05:34:52.091Z,3.13
2023-04-25T05:37:20.076Z,3.63
2023-04-25T05:39:48.037Z,3.87
2023-04-25T05:42:17.530Z,3.77
2023-04-25T05:44:45.690Z,3.40
2023-04-25T05:47:13.732Z,3.87
2023-04-25T05:49:41.714Z,4.00
2023-04-25T05:52:09.682Z,3.60
2023-04-25T05:54:37.620Z,3.63
2023-04-25T05:57:05.610Z,3.23
2023-04-25T05:59:34.983Z,3.33
2023-04-25T06:02:03.219Z,3.57
2023-04-25T06:04:31.375Z,3.13
2023-04-25T06:06:59.602Z,3.20
2023-04-25T06:09:27.513Z,4.40
2023-04-25T06:11:55.465Z,3.70
2023-04-25T06:14:23.976Z,3.20
2023-04-25T06:16:53.315Z,3.53
2023-04-25T06:19:21.196Z,3.10
2023-04-25T06:21:49.153Z,3.37
2023-04-25T06:24:17.042Z,3.03
2023-04-25T06:26:45.517Z,3.17
2023-04-25T06:29:13.402Z,3.43
2023-04-25T06:31:41.443Z,3.90
2023-04-25T06:34:10.818Z,3.50
2023-04-25T06:36:38.857Z,4.03
2023-04-25T06:39:06.855Z,3.17
2023-04-25T06:41:34.778Z,3.90
2023-04-25T06:44:02.756Z,3.40
2023-04-25T06:46:30.727Z,3.40
2023-04-25T06:48:58.722Z,3.93
2023-04-25T06:51:30.334Z,4.10
2023-04-25T06:53:58.290Z,3.37
2023-04-25T06:56:26.388Z,4.13
2023-04-25T06:58:54.309Z,3.30
2023-04-25T07:01:22.258Z,4.00
2023-04-25T07:03:50.478Z,4.00
2023-04-25T07:06:18.669Z,2.70
2023-04-25T07:08:48.404Z,3.33
2023-04-25T07:11:17.656Z,3.07
2023-04-25T07:13:45.777Z,3.47
2023-04-25T07:16:13.772Z,3.07
2023-04-25T07:18:41.767Z,3.63
2023-04-25T07:21:09.645Z,3.33
2023-04-25T07:23:38.674Z,3.47
2023-04-25T07:26:08.074Z,2.87
2023-04-25T07:28:36.017Z,3.03
2023-04-25T07:31:04.113Z,2.90
2023-04-25T07:33:32.000Z,2.97
2023-04-25T07:36:00.031Z,2.77
2023-04-25T07:38:27.967Z,2.90
2023-04-25T07:40:55.939Z,2.60
2023-04-25T07:43:25.331Z,2.70
2023-04-25T07:45:53.281Z,2.70
2023-04-25T07:48:21.268Z,2.73
2023-04-25T07:50:49.212Z,2.70
2023-04-25T07:53:18.987Z,2.90
2023-04-25T07:55:46.930Z,2.10
2023-04-25T07:58:16.578Z,2.70
2023-04-25T08:00:46.018Z,2.40
2023-04-25T08:03:14.141Z,2.70
2023-04-25T08:05:42.372Z,2.50
2023-04-25T08:08:10.282Z,2.30
2023-04-25T08:10:38.235Z,2.40
2023-04-25T08:13:06.177Z,2.10
2023-04-25T08:15:34.135Z,2.47
2023-04-25T08:18:03.802Z,2.40
2023-04-25T08:20:31.931Z,2.87
2023-04-25T08:22:59.940Z,2.30
2023-04-25T08:25:27.870Z,1.90
2023-04-25T08:27:55.965Z,2.03
2023-04-25T08:30:23.890Z,2.43
2023-04-25T08:32:52.307Z,2.03
2023-04-25T08:35:22.361Z,2.17
2023-04-25T08:37:50.596Z,2.00
2023-04-25T08:40:18.498Z,2.00
2023-04-25T08:42:49.771Z,2.60
2023-04-25T08:45:17.824Z,2.30
2023-04-25T08:47:47.515Z,2.10
2023-04-25T08:50:15.577Z,2.03
2023-04-25T08:52:46.178Z,2.17
2023-04-25T08:55:15.099Z,2.50
2023-04-25T08:57:43.984Z,2.00
2023-04-25T09:00:13.009Z,2.60
2023-04-25T09:02:41.467Z,1.83
2023-04-25T09:05:11.139Z,1.70
2023-04-25T09:07:39.070Z,1.90
2023-04-25T09:10:08.788Z,3.00
2023-04-25T09:12:37.371Z,2.00
2023-04-25T09:15:07.125Z,1.60
2023-04-25T09:17:35.122Z,1.70
2023-04-25T09:20:10.090Z,1.50
2023-04-25T09:22:38.615Z,1.63
2023-04-25T09:25:10.415Z,1.43
2023-04-25T09:27:51.113Z,2.17
2023-04-25T09:30:19.144Z,1.50
2023-04-25T09:32:47.243Z,2.10
2023-04-25T09:35:25.536Z,1.87
2023-04-25T09:37:53.484Z,1.60
2023-04-25T09:40:21.451Z,1.60
2023-04-25T09:42:50.812Z,1.60
2023-04-25T09:45:18.762Z,1.57
2023-04-25T09:47:47.342Z,1.40
2023-04-25T09:50:17.005Z,1.57
2023-04-25T09:52:45.848Z,1.57
2023-04-25T09:55:13.960Z,1.63
2023-04-25T09:57:42.305Z,1.93
2023-04-25T10:00:14.224Z,1.60
2023-04-25T10:02:44.448Z,1.57
2023-04-25T10:05:13.073Z,8.13
2023-04-25T10:07:41.599Z,2.10
2023-04-25T10:10:10.134Z,1.63
2023-04-25T10:12:38.378Z,1.30
2023-04-25T10:15:06.745Z,1.37
2023-04-25T10:17:36.429Z,1.70
2023-04-25T10:20:06.119Z,1.90
2023-04-25T10:22:36.571Z,2.93
2023-04-25T10:25:05.556Z,2.60
2023-04-25T10:27:33.885Z,1.77
2023-04-25T10:30:06.252Z,1.97
2023-04-25T10:32:36.010Z,1.70
2023-04-25T10:35:13.572Z,1.30
2023-04-25T10:37:58.565Z,2.30
2023-04-25T10:40:26.675Z,1.50
2023-04-25T10:42:54.739Z,1.33
2023-04-25T10:45:23.077Z,1.50
2023-04-25T10:47:52.848Z,2.13
2023-04-25T10:50:23.676Z,1.40
2023-04-25T10:52:51.813Z,1.40
2023-04-25T10:55:19.908Z,1.90
2023-04-25T10:57:49.718Z,1.30
2023-04-25T11:00:18.756Z,1.50
2023-04-25T11:02:48.357Z,1.40
2023-04-25T11:05:25.138Z,1.33
2023-04-25T11:10:28.015Z,1.40
2023-04-25T11:13:00.025Z,1.60
2023-04-25T11:15:28.263Z,1.53
2023-04-25T11:17:56.454Z,1.40
2023-04-25T11:20:29.906Z,1.60
2023-04-25T11:22:59.680Z,1.40
2023-04-25T11:25:28.069Z,1.40
2023-04-25T11:27:57.122Z,1.70
2023-04-25T11:30:28.690Z,1.33
2023-04-25T11:32:56.831Z,1.57
2023-04-25T11:35:26.999Z,1.57
2023-04-25T11:38:11.634Z,1.70
2023-04-25T11:40:45.191Z,1.60
2023-04-25T11:43:13.166Z,1.50
2023-04-25T11:45:53.820Z,1.33
2023-04-25T11:48:26.356Z,1.30
2023-04-25T11:50:56.360Z,1.20
2023-04-25T11:53:26.042Z,1.43
2023-04-25T11:55:54.248Z,1.57
2023-04-25T11:58:22.310Z,1.70
2023-04-25T12:00:50.844Z,1.20
2023-04-25T12:03:25.130Z,1.33
2023-04-25T12:05:53.579Z,1.30
2023-04-25T12:08:23.495Z,1.40
2023-04-25T12:10:51.558Z,1.87
2023-04-25T12:13:23.046Z,2.03
2023-04-25T12:15:51.472Z,1.47
2023-04-25T12:18:21.594Z,1.30
2023-04-25T12:20:49.710Z,1.30
2023-04-25T12:23:17.697Z,1.20
2023-04-25T12:25:48.280Z,1.43
2023-04-25T12:28:16.950Z,2.47
2023-04-25T12:30:58.789Z,1.23
2023-04-25T12:33:27.270Z,1.40
2023-04-25T12:35:55.325Z,1.37
2023-04-25T12:38:24.094Z,5.33
2023-04-25T12:40:53.529Z,2.33
2023-04-25T12:43:21.596Z,1.57
2023-04-25T12:45:49.967Z,1.33
2023-04-25T12:48:17.958Z,1.20
2023-04-25T12:50:46.345Z,1.47
2023-04-25T12:53:14.447Z,1.10
2023-04-25T12:55:42.535Z,1.23
2023-04-25T12:58:11.954Z,1.50
2023-04-25T13:00:40.150Z,1.20
2023-04-25T13:03:08.407Z,1.40
2023-04-25T13:05:36.600Z,1.37
2023-04-25T13:08:05.399Z,1.20
2023-04-25T13:10:35.123Z,1.20
2023-04-25T13:13:03.770Z,1.57
2023-04-25T13:15:33.379Z,1.43
2023-04-25T13:18:01.408Z,1.30
2023-04-25T13:20:29.428Z,1.77
2023-04-25T13:22:57.501Z,1.10
2023-04-25T13:25:26.086Z,1.10
2023-04-25T13:27:54.033Z,1.00
2023-04-25T13:30:22.082Z,1.30
2023-04-25T13:32:51.749Z,1.10
2023-04-25T13:35:19.809Z,1.10
2023-04-25T13:37:47.845Z,1.40
2023-04-25T13:40:15.906Z,1.23
2023-04-25T13:42:45.482Z,1.60
2023-04-25T13:45:13.481Z,2.00
2023-04-25T13:47:41.520Z,1.50
2023-04-25T13:50:11.981Z,1.57
2023-04-25T13:52:39.945Z,1.10
2023-04-25T13:55:08.443Z,1.33
2023-04-25T13:57:37.421Z,1.40
2023-04-25T14:00:09.832Z,1.40
2023-04-25T14:02:38.008Z,1.13
2023-04-25T14:05:07.860Z,1.20
2023-04-25T14:07:37.442Z,1.30
2023-04-25T14:10:06.874Z,1.30
2023-04-25T14:12:34.942Z,1.27
2023-04-25T14:15:03.018Z,1.30
2023-04-25T14:17:31.114Z,1.40
2023-04-25T14:19:59.367Z,1.50
2023-04-25T14:22:27.840Z,1.00
2023-04-25T14:24:57.249Z,1.07
2023-04-25T14:27:26.198Z,1.30
2023-04-25T14:29:55.998Z,1.20
2023-04-25T14:32:24.081Z,1.90
2023-04-25T14:34:52.084Z,1.90
2023-04-25T14:37:20.078Z,1.27
2023-04-25T14:39:48.062Z,1.23
2023-04-25T14:42:17.510Z,1.07
2023-04-25T14:44:45.537Z,1.20
2023-04-25T14:47:13.532Z,1.23
2023-04-25T14:49:41.509Z,0.90
2023-04-25T14:52:09.552Z,1.40
2023-04-25T14:54:37.561Z,1.20
2023-04-25T14:57:05.570Z,1.00
2023-04-25T14:59:35.004Z,1.07
2023-04-25T15:02:03.486Z,1.27
2023-04-25T15:04:32.323Z,1.10
2023-04-25T15:07:00.496Z,0.97
2023-04-25T15:09:29.641Z,0.90
2023-04-25T15:11:57.845Z,0.80
2023-04-25T15:14:25.818Z,1.00
2023-04-25T15:16:55.402Z,1.07
2023-04-25T15:19:23.638Z,1.10
2023-04-25T15:21:51.722Z,1.40
2023-04-25T15:24:19.966Z,1.23
2023-04-25T15:26:48.260Z,1.47
2023-04-25T15:29:16.613Z,1.23
2023-04-25T15:31:44.694Z,1.50
2023-04-25T15:34:14.183Z,1.10
2023-04-25T15:36:42.194Z,1.47
2023-04-25T15:39:10.244Z,1.40
2023-04-25T15:41:38.495Z,1.10
2023-04-25T15:44:08.107Z,1.10
2023-04-25T15:46:36.130Z,1.10
2023-04-25T15:49:04.237Z,1.63
2023-04-25T15:51:33.865Z,1.30
2023-04-25T15:54:02.779Z,0.90
2023-04-25T15:56:30.876Z,1.20
2023-04-25T15:58:59.049Z,1.00
2023-04-25T16:01:31.072Z,1.10
2023-04-25T16:03:59.681Z,1.10
2023-04-25T16:06:28.636Z,1.00
2023-04-25T16:08:58.405Z,0.83
2023-04-25T16:11:26.369Z,1.20
2023-04-25T16:13:54.391Z,1.50
2023-04-25T16:16:22.498Z,1.20
2023-04-25T16:18:50.594Z,1.20
2023-04-25T16:21:18.640Z,1.20
2023-04-25T16:23:46.625Z,1.20
2023-04-25T16:26:16.150Z,1.00
2023-04-25T16:28:44.257Z,1.00
2023-04-25T16:31:12.441Z,1.40
2023-04-25T16:33:40.433Z,1.50
2023-04-25T16:36:08.993Z,1.33
2023-04-25T16:38:39.836Z,1.10
2023-04-25T16:41:07.852Z,1.33
2023-04-25T16:43:40.326Z,1.20
2023-04-25T16:46:08.413Z,1.00
2023-04-25T16:48:36.540Z,1.50
2023-04-25T16:51:04.660Z,1.57
2023-04-25T16:53:33.618Z,1.10
2023-04-25T16:56:01.612Z,1.33
2023-04-25T16:58:29.689Z,1.23
2023-04-25T17:00:59.150Z,1.10
2023-04-25T17:03:27.662Z,1.17
2023-04-25T17:05:56.900Z,1.03
2023-04-25T17:08:25.000Z,1.10
2023-04-25T17:10:53.088Z,1.10
2023-04-25T17:13:21.426Z,1.20
2023-04-25T17:16:00.761Z,1.03
2023-04-25T17:18:28.844Z,1.13
2023-04-25T17:20:57.054Z,1.40
2023-04-25T17:23:25.078Z,1.03
2023-04-25T17:25:53.642Z,1.60
2023-04-25T17:28:21.623Z,1.00
2023-04-25T17:30:58.231Z,1.27
2023-04-25T17:33:27.940Z,1.10
2023-04-25T17:35:56.014Z,1.40
2023-04-25T17:38:24.468Z,1.50
2023-04-25T17:40:52.516Z,1.30
2023-04-25T17:43:20.608Z,1.10
2023-04-25T17:45:48.710Z,1.00
2023-04-25T17:48:17.271Z,1.27
2023-04-25T17:50:48.723Z,1.40
2023-04-25T17:53:17.308Z,1.33
2023-04-25T17:55:45.540Z,2.17
2023-04-25T17:58:13.637Z,1.50
2023-04-25T18:00:41.830Z,1.23
2023-04-25T18:03:09.995Z,1.40
2023-04-25T18:05:38.582Z,2.20
2023-04-25T18:08:08.097Z,1.50
2023-04-25T18:10:36.121Z,1.63
2023-04-25T18:13:04.091Z,1.70
2023-04-25T18:15:32.100Z,1.60
2023-04-25T18:18:03.090Z,1.30
2023-04-25T18:20:31.164Z,1.67
2023-04-25T18:22:59.241Z,2.23
2023-04-25T18:25:28.764Z,1.80
2023-04-25T18:27:57.643Z,1.60
2023-04-25T18:30:25.700Z,2.87
2023-04-25T18:32:53.864Z,1.80
2023-04-25T18:35:22.723Z,1.77
2023-04-25T18:37:51.347Z,1.40
2023-04-25T18:40:19.654Z,1.57
2023-04-25T18:42:49.128Z,1.60
2023-04-25T18:45:17.270Z,1.50
2023-04-25T18:47:46.815Z,1.73
2023-04-25T18:50:15.738Z,1.27
2023-04-25T18:52:43.896Z,2.07
2023-04-25T18:55:12.056Z,2.10
2023-04-25T18:57:40.040Z,1.73
2023-04-25T19:00:11.397Z,1.67
2023-04-25T19:02:39.706Z,1.30
2023-04-25T19:05:08.401Z,1.47
2023-04-25T19:07:37.196Z,1.90
2023-04-25T19:10:09.493Z,2.10
2023-04-25T19:12:37.534Z,1.83
2023-04-25T19:15:06.989Z,2.20
2023-04-25T19:17:36.562Z,2.60
2023-04-25T19:20:05.820Z,2.47
2023-04-25T19:25:55.593Z,2.97
2023-04-25T19:28:23.558Z,2.63
2023-04-25T19:30:52.337Z,1.77
2023-04-25T19:33:21.825Z,2.27
2023-04-25T19:35:49.709Z,2.20
2023-04-25T19:38:17.595Z,2.37
2023-04-25T19:40:45.556Z,2.13
2023-04-25T19:43:13.792Z,1.87
2023-04-25T19:45:41.739Z,1.80
2023-04-25T19:48:10.521Z,1.90
2023-04-25T19:50:39.862Z,1.70
2023-04-25T19:53:07.812Z,2.00
2023-04-25T19:55:35.926Z,1.90
2023-04-25T19:58:04.041Z,1.70
2023-04-25T20:00:31.997Z,1.40
2023-04-25T20:02:59.955Z,2.27
2023-04-25T20:05:28.215Z,1.77
2023-04-25T20:07:57.577Z,1.43
2023-04-25T20:10:25.670Z,2.53
2023-04-25T20:12:54.664Z,1.50
2023-04-25T20:15:22.609Z,1.20
2023-04-25T20:17:50.679Z,1.57
2023-04-25T20:20:18.831Z,1.87
2023-04-25T20:22:46.766Z,1.87
2023-04-25T20:25:16.944Z,1.60
2023-04-25T20:27:45.443Z,1.60
2023-04-25T20:30:14.061Z,2.00
2023-04-25T20:32:42.115Z,2.00
2023-04-25T20:35:10.517Z,2.73
2023-04-25T20:37:38.797Z,2.07
2023-04-25T20:40:07.925Z,1.77
2023-04-25T20:42:38.401Z,1.77
2023-04-25T20:45:07.968Z,1.57
2023-04-25T20:47:36.183Z,1.60
2023-04-25T20:50:06.188Z,1.70
2023-04-25T20:52:34.144Z,2.07
2023-04-25T20:55:02.193Z,1.63
2023-04-25T20:57:30.545Z,2.10
2023-04-25T20:59:59.910Z,1.77
2023-04-25T21:02:28.210Z,1.73
2023-04-25T21:04:56.227Z,1.87
2023-04-25T21:07:24.131Z,1.93
2023-04-25T21:09:52.314Z,1.53
2023-04-25T21:12:20.271Z,1.50
2023-04-25T21:14:48.205Z,1.60
2023-04-25T21:17:17.541Z,1.60
2023-04-25T21:19:45.466Z,1.93
2023-04-25T21:22:13.420Z,2.43
2023-04-25T21:24:41.347Z,1.80
2023-04-25T21:27:09.213Z,1.83
2023-04-25T21:29:37.196Z,1.83
2023-04-25T21:32:05.156Z,1.90
2023-04-25T21:34:34.479Z,1.60
2023-04-25T21:37:02.560Z,1.60
2023-04-25T21:39:30.462Z,1.70
2023-04-25T21:41:58.382Z,1.77
2023-04-25T21:44:28.760Z,2.07
2023-04-25T21:46:56.716Z,1.73
2023-04-25T21:49:29.518Z,1.77
2023-04-25T21:51:58.991Z,1.40
2023-04-25T21:54:27.307Z,1.67
2023-04-25T21:56:55.561Z,2.03
2023-04-25T21:59:24.368Z,1.93
2023-04-25T22:01:52.430Z,1.37
2023-04-25T22:04:20.877Z,1.73
2023-04-25T22:06:48.953Z,2.10
2023-04-25T22:09:18.285Z,1.60
2023-04-25T22:11:46.424Z,1.70
2023-04-25T22:14:17.466Z,1.57
2023-04-25T22:16:46.071Z,1.77
2023-04-25T22:19:14.192Z,1.37
2023-04-25T22:21:42.142Z,1.73
2023-04-25T22:24:10.135Z,2.53
2023-04-25T22:26:39.564Z,1.70
2023-04-25T22:29:07.641Z,1.40
2023-04-25T22:31:35.660Z,1.63
2023-04-25T22:34:03.980Z,1.87
2023-04-25T22:36:31.903Z,2.43
2023-04-25T22:38:59.806Z,1.53
2023-04-25T22:41:27.790Z,1.97
2023-04-25T22:43:57.141Z,1.50
2023-04-25T22:46:25.135Z,1.87
2023-04-25T22:48:53.563Z,1.70
2023-04-25T22:51:22.232Z,1.60
2023-04-25T22:53:50.105Z,1.57
2023-04-25T22:56:18.054Z,1.33
2023-04-25T22:58:45.980Z,1.47
2023-04-25T23:01:18.953Z,1.53
2023-04-25T23:03:47.447Z,1.70
2023-04-25T23:06:15.461Z,2.00
2023-04-25T23:08:43.944Z,1.90
2023-04-25T23:11:11.914Z,1.50
2023-04-25T23:13:39.865Z,1.63
2023-04-25T23:16:08.890Z,1.73
2023-04-25T23:18:39.267Z,2.03
2023-04-25T23:21:09.446Z,1.70
2023-04-25T23:23:38.180Z,1.57
2023-04-25T23:26:09.593Z,1.37
2023-04-25T23:28:39.908Z,1.63
2023-04-25T23:31:10.316Z,1.97
2023-04-25T23:33:40.129Z,2.23
2023-04-25T23:36:08.781Z,2.40
2023-04-25T23:38:36.690Z,1.90
2023-04-25T23:41:04.656Z,2.37
2023-04-25T23:43:32.715Z,2.30
2023-04-25T23:46:00.692Z,5.27
2023-04-25T23:48:28.722Z,3.70
2023-04-25T23:50:58.050Z,1.73
2023-04-25T23:53:26.096Z,1.60
2023-04-25T23:55:54.086Z,2.50
2023-04-25T23:58:22.030Z,2.30
